Time,TemperatureF,DewpointF,PressureIn,WindDirection,WindDirectionDegrees,WindSpeedMPH,WindSpeedGustMPH,Humidity,HourlyPrecipIn,Conditions,Clouds,dailyrainin,SolarRadiationWatts/m^2,SoftwareType,DateUTC
2013-08-25 00:02:00,-999.0,-99.9,-100.00,NE,36,8.0,17.0,-999,-99.99,,,-99.99,0.000000,,2013-08-25 04:02:00,
2013-08-25 00:44:00,72.0,64.0,-100.00,NNE,33,9.0,15.0,75,0.00,,,0.06,0.000000,,2013-08-25 04:44:00,
2013-08-25 00:54:00,72.0,64.0,-100.00,NNE,33,9.0,15.0,75,0.00,,,0.06,0.000000,,2013-08-25 04:54:00,
2013-08-25 01:03:00,72.0,64.0,-100.00,NNE,33,9.0,15.0,75,0.00,,,0.06,0.000000,,2013-08-25 05:03:00,
2013-08-25 01:43:00,69.0,63.0,-100.00,North,5,5.0,14.0,81,0.00,,,0.03,0.000000,,2013-08-25 05:43:00,
2013-08-25 01:52:00,69.0,63.0,-100.00,North,5,5.0,14.0,81,0.00,,,0.03,0.000000,,2013-08-25 05:52:00,
2013-08-25 02:03:00,69.0,63.0,-100.00,North,5,5.0,14.0,81,0.00,,,0.03,0.000000,,2013-08-25 06:03:00,
2013-08-25 02:43:00,67.0,62.0,-100.00,North,9,4.0,8.0,84,0.00,,,0.00,0.000000,,2013-08-25 06:43:00,
2013-08-25 02:52:00,67.0,62.0,-100.00,North,9,4.0,8.0,84,0.00,,,0.00,0.000000,,2013-08-25 06:52:00,
2013-08-25 03:01:00,67.0,62.0,-100.00,North,9,4.0,8.0,84,0.00,,,0.00,0.000000,,2013-08-25 07:01:00,
2013-08-25 03:42:00,67.0,62.0,-100.00,North,6,6.0,9.0,83,0.00,,,0.00,0.000000,,2013-08-25 07:42:00,
2013-08-25 03:52:00,67.0,62.0,-100.00,North,6,6.0,9.0,83,0.00,,,0.00,0.000000,,2013-08-25 07:52:00,
2013-08-25 04:02:00,67.0,62.0,-100.00,North,6,6.0,9.0,83,0.00,,,0.00,0.000000,,2013-08-25 08:02:00,
2013-08-25 04:42:00,67.0,62.0,-100.00,North,8,6.0,9.0,85,0.00,,,0.00,0.000000,,2013-08-25 08:42:00,
2013-08-25 04:52:00,67.0,62.0,-100.00,North,8,6.0,9.0,85,0.00,,,0.00,0.000000,,2013-08-25 08:52:00,
2013-08-25 05:02:00,67.0,62.0,-100.00,North,8,6.0,9.0,85,0.00,,,0.00,0.000000,,2013-08-25 09:02:00,
2013-08-25 05:44:00,66.0,61.0,-100.00,North,7,5.0,8.0,85,0.00,,,0.00,0.000000,,2013-08-25 09:44:00,
2013-08-25 05:55:00,66.0,61.0,-100.00,North,7,5.0,8.0,85,0.00,,,0.00,0.000000,,2013-08-25 09:55:00,
2013-08-25 06:03:00,66.0,61.0,-100.00,North,7,5.0,8.0,85,0.00,,,0.00,0.000000,,2013-08-25 10:03:00,
2013-08-25 06:42:00,66.0,61.0,-100.00,North,10,5.0,8.0,85,0.00,,,0.00,0.000000,,2013-08-25 10:42:00,
2013-08-25 06:53:00,66.0,61.0,-100.00,North,10,5.0,8.0,85,0.00,,,0.00,0.000000,,2013-08-25 10:53:00,
2013-08-25 07:02:00,66.0,61.0,-100.00,North,10,5.0,8.0,85,0.00,,,0.00,0.000000,,2013-08-25 11:02:00,
2013-08-25 07:42:00,66.0,61.0,-100.00,North,7,6.0,9.0,85,0.00,,,0.00,10.000000,,2013-08-25 11:42:00,
2013-08-25 07:52:00,66.0,61.0,-100.00,North,7,6.0,9.0,85,0.00,,,0.00,10.000000,,2013-08-25 11:52:00,
2013-08-25 08:02:00,66.0,61.0,-100.00,North,7,6.0,9.0,85,0.00,,,0.00,10.000000,,2013-08-25 12:02:00,
2013-08-25 08:43:00,70.0,62.0,-100.00,North,10,7.0,10.0,77,0.00,,,0.00,149.000000,,2013-08-25 12:43:00,
2013-08-25 08:52:00,70.0,62.0,-100.00,North,10,7.0,10.0,77,0.00,,,0.00,149.000000,,2013-08-25 12:52:00,
2013-08-25 09:02:00,70.0,62.0,-100.00,North,10,7.0,10.0,77,0.00,,,0.00,149.000000,,2013-08-25 13:02:00,
2013-08-25 09:42:00,73.0,63.0,-100.00,NNE,13,10.0,17.0,70,0.00,,,0.00,377.000000,,2013-08-25 13:42:00,
2013-08-25 09:52:00,73.0,63.0,-100.00,NNE,13,10.0,17.0,70,0.00,,,0.00,377.000000,,2013-08-25 13:52:00,
2013-08-25 10:02:00,73.0,63.0,-100.00,NNE,13,10.0,17.0,70,0.00,,,0.00,377.000000,,2013-08-25 14:02:00,
2013-08-25 10:42:00,75.0,61.0,-100.00,NNE,22,12.0,20.0,62,0.00,,,0.00,597.000000,,2013-08-25 14:42:00,
2013-08-25 10:52:00,75.0,61.0,-100.00,NNE,22,12.0,20.0,62,0.00,,,0.00,597.000000,,2013-08-25 14:52:00,
2013-08-25 11:01:00,75.0,61.0,-100.00,NNE,22,12.0,20.0,62,0.00,,,0.00,597.000000,,2013-08-25 15:01:00,
2013-08-25 11:05:00,77.0,61.0,-100.00,NNE,31,15.0,23.0,58,0.00,,,0.00,802.000000,,2013-08-25 15:05:00,
2013-08-25 11:44:00,77.0,61.0,-100.00,NNE,31,15.0,23.0,58,0.00,,,0.00,802.000000,,2013-08-25 15:44:00,
2013-08-25 11:55:00,77.0,61.0,-100.00,NNE,31,15.0,23.0,58,0.00,,,0.00,802.000000,,2013-08-25 15:55:00,
2013-08-25 12:44:00,78.0,62.0,-100.00,NNE,27,14.0,22.0,57,0.00,,,0.00,951.000000,,2013-08-25 16:44:00,
2013-08-25 12:54:00,78.0,62.0,-100.00,NNE,27,14.0,22.0,57,0.00,,,0.00,951.000000,,2013-08-25 16:54:00,
2013-08-25 13:03:00,78.0,62.0,-100.00,NNE,27,14.0,22.0,57,0.00,,,0.00,951.000000,,2013-08-25 17:03:00,
2013-08-25 13:43:00,80.0,62.0,-100.00,NE,40,12.0,20.0,55,0.00,,,0.00,1031.000000,,2013-08-25 17:43:00,
2013-08-25 13:53:00,80.0,62.0,-100.00,NE,40,12.0,20.0,55,0.00,,,0.00,1031.000000,,2013-08-25 17:53:00,
2013-08-25 14:02:00,80.0,62.0,-100.00,NE,40,12.0,20.0,55,0.00,,,0.00,1031.000000,,2013-08-25 18:02:00,
2013-08-25 14:43:00,79.0,62.0,-100.00,NNE,29,13.0,21.0,56,0.00,,,0.00,953.000000,,2013-08-25 18:43:00,
2013-08-25 14:52:00,79.0,62.0,-100.00,NNE,29,13.0,21.0,56,0.00,,,0.00,953.000000,,2013-08-25 18:52:00,
2013-08-25 15:02:00,79.0,62.0,-100.00,NNE,29,13.0,21.0,56,0.00,,,0.00,953.000000,,2013-08-25 19:02:00,
2013-08-25 15:42:00,79.0,63.0,-100.00,NE,36,13.0,24.0,59,0.00,,,0.00,813.000000,,2013-08-25 19:42:00,
2013-08-25 15:53:00,79.0,63.0,-100.00,NE,36,13.0,24.0,59,0.00,,,0.00,813.000000,,2013-08-25 19:53:00,
2013-08-25 16:03:00,79.0,63.0,-100.00,NE,36,13.0,24.0,59,0.00,,,0.00,813.000000,,2013-08-25 20:03:00,
2013-08-25 16:43:00,80.0,65.0,-100.00,NE,41,11.0,21.0,61,0.00,,,0.00,636.000000,,2013-08-25 20:43:00,
2013-08-25 16:53:00,80.0,65.0,-100.00,NE,41,11.0,21.0,61,0.00,,,0.00,636.000000,,2013-08-25 20:53:00,
2013-08-25 17:02:00,80.0,65.0,-100.00,NE,41,11.0,21.0,61,0.00,,,0.00,636.000000,,2013-08-25 21:02:00,
2013-08-25 17:43:00,78.0,64.0,-100.00,NE,41,10.0,19.0,62,0.00,,,0.00,539.000000,,2013-08-25 21:43:00,
2013-08-25 17:55:00,78.0,64.0,-100.00,NE,41,10.0,19.0,62,0.00,,,0.00,539.000000,,2013-08-25 21:55:00,
2013-08-25 18:03:00,78.0,64.0,-100.00,NE,41,10.0,19.0,62,0.00,,,0.00,539.000000,,2013-08-25 22:03:00,
2013-08-25 18:43:00,78.0,65.0,-100.00,NE,55,9.0,18.0,64,0.00,,,0.00,411.000000,,2013-08-25 22:43:00,
2013-08-25 18:53:00,78.0,65.0,-100.00,NE,55,9.0,18.0,64,0.00,,,0.00,411.000000,,2013-08-25 22:53:00,
2013-08-25 19:03:00,78.0,65.0,-100.00,NE,55,9.0,18.0,64,0.00,,,0.00,411.000000,,2013-08-25 23:03:00,
2013-08-25 19:43:00,75.0,65.0,-100.00,ENE,57,8.0,18.0,70,0.00,,,0.00,171.000000,,2013-08-25 23:43:00,
2013-08-25 19:53:00,75.0,65.0,-100.00,ENE,57,8.0,18.0,70,0.00,,,0.00,171.000000,,2013-08-25 23:53:00,
2013-08-25 20:02:00,75.0,65.0,-100.00,ENE,57,8.0,18.0,70,0.00,,,0.00,171.000000,,2013-08-26 00:02:00,
2013-08-25 20:42:00,71.0,63.0,-100.00,ENE,57,7.0,13.0,76,0.00,,,0.00,21.000000,,2013-08-26 00:42:00,
2013-08-25 20:52:00,71.0,63.0,-100.00,ENE,57,7.0,13.0,76,0.00,,,0.00,21.000000,,2013-08-26 00:52:00,
2013-08-25 21:01:00,71.0,63.0,-100.00,ENE,57,7.0,13.0,76,0.00,,,0.00,21.000000,,2013-08-26 01:01:00,
2013-08-25 21:42:00,69.0,63.0,-100.00,NNE,31,4.0,8.0,82,0.00,,,0.00,0.000000,,2013-08-26 01:42:00,
2013-08-25 21:52:00,69.0,63.0,-100.00,NNE,31,4.0,8.0,82,0.00,,,0.00,0.000000,,2013-08-26 01:52:00,
2013-08-25 22:02:00,69.0,63.0,-100.00,NNE,31,4.0,8.0,82,0.00,,,0.00,0.000000,,2013-08-26 02:02:00,
2013-08-25 22:42:00,67.0,62.0,-100.00,NE,49,5.0,8.0,85,0.00,,,0.00,0.000000,,2013-08-26 02:42:00,
2013-08-25 22:52:00,67.0,62.0,-100.00,NE,49,5.0,8.0,85,0.00,,,0.00,0.000000,,2013-08-26 02:52:00,
2013-08-25 23:02:00,67.0,62.0,-100.00,NE,49,5.0,8.0,85,0.00,,,0.00,0.000000,,2013-08-26 03:02:00,
2013-08-25 23:05:00,67.0,61.0,-100.00,NE,43,6.0,9.0,81,0.00,,,0.00,0.000000,,2013-08-26 03:05:00,
2013-08-25 23:44:00,67.0,61.0,-100.00,NE,43,6.0,9.0,81,0.00,,,0.00,0.000000,,2013-08-26 03:44:00,
2013-08-25 23:56:00,67.0,61.0,-100.00,NE,43,6.0,9.0,81,0.00,,,0.00,0.000000,,2013-08-26 03:56:00,